Airfield :
LOGIN :

Register | Disclaimer

   EN    FR    IT 

 










Legend :    VFR   Marginal VFR   IFR   Intensive IFR   Very Intensive IFR
Visi :
Ceiling :
>= 8 km
>= 3000ft
5 to 8 km
1000 to 3000 ft
1500m to 5 km
500 to 1000 ft
800 to 1500m
200 to 500 ft
< 800m
< 200 ft
Symbols :   Thunderstorms  Fog  Heavy snow  Heavy precipitations  Wind > 20 kt
SIGMETs :     Misc.  Thunderstorms  Icing  Turbulence  Mountain Waves  Volcanic Ashes







- Airport Elevation : 21 ft
- IATA code : VST


ESOW - Stockholm Västerås

CURRENT METAR :
  • 131550Z AUTO 20006KT 9999 BKN012/// OVC036/// 09/07 Q1014

EXPIRED METARs :
  • 131520Z AUTO 20005KT 170V240 9999 OVC029/// 09/07 Q1014
  • 131450Z AUTO 22005KT 9999 FEW010/// OVC028/// 09/07 Q1014
  • 131420Z AUTO 21004KT 170V250 9999 SCT016/// OVC053/// 09/07 Q1013
  • 131350Z AUTO 20007KT 9999 BKN030/// OVC053/// 09/07 Q1013
  • 131320Z AUTO 19007KT 9999 SCT024/// BKN029/// OVC053/// 09/07 Q1013
  • 131250Z AUTO 19006KT 9999 SCT006/// OVC049/// 09/07 Q1013

Expired Forecast.
No reported NOTAMs for that airfield.



MET'MAP, your aeronautical weather chart ! - Copyright ORBIFLY December 2007 - Disclaimer

ORBIFLY MET'MAP TEAM :

Programming & Development : Alexandra Zaïnal
Concept & Development : Baudouin d'Aumeries
Co-Development & Prog : Marc-Olivier Méhu
Technical & hardware support : Manuel Goepfert

Contact : metmap@orbifly.com




SOURCES & CREDITS :

   NOAA